createdAt,value
2022-09-15T00:02:59.328Z,99775.74
2022-09-15T00:06:06.665Z,99770.02
2022-09-15T00:09:12.462Z,99772.52
2022-09-15T00:12:18.118Z,99771.62
2022-09-15T00:15:25.154Z,99781.73
2022-09-15T00:18:32.269Z,99779.14
2022-09-15T00:21:41.490Z,99780.16
2022-09-15T00:24:48.423Z,99775.91
2022-09-15T00:27:54.521Z,99788.39
2022-09-15T00:31:02.925Z,99780.27
2022-09-15T00:34:11.644Z,99781.89
2022-09-15T00:37:17.449Z,99779.05
2022-09-15T00:40:24.502Z,99783.10
2022-09-15T00:43:31.342Z,99778.44
2022-09-15T00:46:41.966Z,99788.91
2022-09-15T00:49:49.206Z,99780.98
2022-09-15T00:53:06.215Z,99791.58
2022-09-15T00:56:12.711Z,99782.28
2022-09-15T00:59:21.342Z,99781.98
2022-09-15T01:02:31.143Z,99781.02
2022-09-15T01:05:43.542Z,99781.88
2022-09-15T01:09:07.710Z,99783.56
2022-09-15T01:12:14.809Z,99786.75
2022-09-15T01:15:24.242Z,99788.27
2022-09-15T01:19:18.279Z,99780.23
2022-09-15T01:22:54.822Z,99773.30
2022-09-15T01:26:21.594Z,99794.86
2022-09-15T01:30:08.618Z,99808.91
2022-09-15T01:33:38.045Z,99796.69
2022-09-15T01:37:01.227Z,99799.88
2022-09-15T01:40:08.676Z,99785.73
2022-09-15T01:43:15.543Z,99766.09
2022-09-15T01:46:20.975Z,99773.61
2022-09-15T01:49:28.237Z,99770.66
2022-09-15T01:52:36.166Z,99768.02
2022-09-15T01:55:55.288Z,99766.74
2022-09-15T01:59:02.976Z,99758.84
2022-09-15T02:02:21.604Z,99746.78
2022-09-15T02:05:37.750Z,99743.52
2022-09-15T02:09:05.352Z,99729.58
2022-09-15T02:12:38.910Z,99731.81
2022-09-15T02:15:49.944Z,99740.05
2022-09-15T02:19:00.685Z,99738.98
2022-09-15T02:22:15.525Z,99740.36
2022-09-15T02:25:27.512Z,99732.42
2022-09-15T02:28:38.016Z,99728.30
2022-09-15T02:31:43.745Z,99730.33
2022-09-15T02:34:54.784Z,99739.63
2022-09-15T02:38:01.111Z,99744.79
2022-09-15T02:41:08.189Z,99754.36
2022-09-15T02:44:13.595Z,99750.86
2022-09-15T02:47:21.217Z,99747.73
2022-09-15T02:50:26.989Z,99752.25
2022-09-15T02:53:33.716Z,99756.72
2022-09-15T02:56:39.915Z,99756.50
2022-09-15T03:00:03.569Z,99765.70
2022-09-15T03:03:08.217Z,99789.72
2022-09-15T03:06:21.186Z,99788.44
2022-09-15T03:09:26.984Z,99775.56
2022-09-15T03:12:33.759Z,99765.94
2022-09-15T03:15:40.849Z,99762.13
2022-09-15T03:18:49.881Z,99769.84
2022-09-15T03:21:56.199Z,99772.18
2022-09-15T03:25:02.368Z,99765.62
2022-09-15T03:28:10.566Z,99762.25
2022-09-15T03:31:17.372Z,99745.84
2022-09-15T03:34:22.340Z,99735.48
2022-09-15T03:37:28.729Z,99727.73
2022-09-15T03:40:35.913Z,99723.08
2022-09-15T03:43:42.818Z,99724.94
2022-09-15T03:46:48.018Z,99726.29
2022-09-15T03:49:55.609Z,99726.58
2022-09-15T03:53:01.475Z,99725.31
2022-09-15T03:56:10.667Z,99714.09
2022-09-15T03:59:16.970Z,99721.67
2022-09-15T04:02:23.300Z,99726.00
2022-09-15T04:05:28.811Z,99733.39
2022-09-15T04:08:35.007Z,99736.34
2022-09-15T04:11:40.823Z,99729.68
2022-09-15T04:14:47.019Z,99728.95
2022-09-15T04:17:52.420Z,99731.42
2022-09-15T04:20:59.380Z,99720.13
2022-09-15T04:24:05.339Z,99731.66
2022-09-15T04:27:11.552Z,99726.08
2022-09-15T04:30:17.560Z,99730.44
2022-09-15T04:33:22.911Z,99724.66
2022-09-15T04:36:38.507Z,99733.34
2022-09-15T04:39:44.121Z,99721.72
2022-09-15T04:42:49.281Z,99719.20
2022-09-15T04:45:54.687Z,99722.78
2022-09-15T04:49:00.633Z,99713.83
2022-09-15T04:52:09.482Z,99702.94
2022-09-15T04:55:18.691Z,99707.80
2022-09-15T04:58:27.739Z,99703.05
2022-09-15T05:01:38.857Z,99700.82
2022-09-15T05:04:43.993Z,99701.03
2022-09-15T05:07:49.961Z,99686.95
2022-09-15T05:10:58.156Z,99687.76
2022-09-15T05:14:05.357Z,99676.53
2022-09-15T05:17:11.789Z,99668.44
2022-09-15T05:20:30.878Z,99679.27
2022-09-15T05:23:37.699Z,99684.50
2022-09-15T05:26:44.416Z,99674.23
2022-09-15T05:30:00.341Z,99670.78
2022-09-15T05:32:59.057Z,99669.44
2022-09-15T05:36:12.694Z,99681.05
2022-09-15T05:39:17.876Z,99682.69
2022-09-15T05:42:24.929Z,99681.37
2022-09-15T05:45:32.753Z,99673.61
2022-09-15T05:48:37.867Z,99674.16
2022-09-15T05:51:43.797Z,99677.20
2022-09-15T05:54:50.645Z,99681.66
2022-09-15T05:57:57.651Z,99686.59
2022-09-15T06:01:06.002Z,99681.42
2022-09-15T06:04:13.466Z,99684.59
2022-09-15T06:07:21.320Z,99703.92
2022-09-15T06:10:27.510Z,99692.28
2022-09-15T06:13:33.504Z,99691.52
2022-09-15T06:16:39.683Z,99670.29
2022-09-15T06:19:44.969Z,99668.36
2022-09-15T06:22:49.612Z,99663.44
2022-09-15T06:25:55.580Z,99671.70
2022-09-15T06:29:17.946Z,99675.41
2022-09-15T06:32:23.892Z,99671.80
2022-09-15T06:35:28.505Z,99679.70
2022-09-15T06:38:33.828Z,99682.02
2022-09-15T06:41:58.795Z,99680.48
2022-09-15T06:44:48.949Z,99693.63
2022-09-15T06:48:20.206Z,99691.46
2022-09-15T06:51:11.374Z,99703.22
2022-09-15T06:54:18.803Z,99708.58
2022-09-15T06:57:25.939Z,99711.19
2022-09-15T07:00:42.225Z,99709.70
2022-09-15T07:03:47.186Z,99709.31
2022-09-15T07:06:54.327Z,99705.11
2022-09-15T07:10:02.444Z,99705.11
2022-09-15T07:13:19.607Z,99696.81
2022-09-15T07:16:41.455Z,99689.05
2022-09-15T07:19:53.981Z,99694.34
2022-09-15T07:23:03.477Z,99701.59
2022-09-15T07:26:10.461Z,99697.73
2022-09-15T07:29:19.560Z,99696.42
2022-09-15T07:32:30.229Z,99698.95
2022-09-15T07:35:37.515Z,99699.28
2022-09-15T07:38:50.841Z,99699.80
2022-09-15T07:42:02.458Z,99693.42
2022-09-15T07:45:10.069Z,99682.94
2022-09-15T07:48:54.084Z,99680.80
2022-09-15T07:52:23.089Z,99682.77
2022-09-15T07:55:28.342Z,99688.95
2022-09-15T07:58:35.075Z,99689.47
2022-09-15T08:01:41.803Z,99686.48
2022-09-15T08:04:49.478Z,99689.34
2022-09-15T08:07:55.746Z,99687.26
2022-09-15T08:11:18.277Z,99687.94
2022-09-15T08:14:22.343Z,99685.56
2022-09-15T08:17:29.811Z,99672.95
2022-09-15T08:20:38.041Z,99671.20
2022-09-15T08:23:44.916Z,99670.03
2022-09-15T08:26:52.428Z,99664.23
2022-09-15T08:29:58.379Z,99663.77
2022-09-15T08:33:04.396Z,99658.20
2022-09-15T08:36:10.567Z,99656.86
2022-09-15T08:39:18.588Z,99659.66
2022-09-15T08:42:34.338Z,99649.64
2022-09-15T08:45:45.246Z,99648.39
2022-09-15T08:49:02.035Z,99646.56
2022-09-15T08:52:06.342Z,99648.23
2022-09-15T08:55:15.050Z,99646.66
2022-09-15T08:58:20.595Z,99641.26
2022-09-15T09:02:07.490Z,99639.47
2022-09-15T09:05:51.292Z,99630.49
2022-09-15T09:09:14.151Z,99628.09
2022-09-15T09:13:00.707Z,99616.86
2022-09-15T09:16:36.166Z,99623.62
2022-09-15T09:20:15.004Z,99623.83
2022-09-15T09:23:31.016Z,99627.30
2022-09-15T09:26:36.240Z,99615.16
2022-09-15T09:29:48.993Z,99611.05
2022-09-15T09:33:01.765Z,99611.16
2022-09-15T09:36:08.923Z,99605.63
2022-09-15T09:39:15.286Z,99603.10
2022-09-15T09:42:25.785Z,99603.88
2022-09-15T09:49:40.628Z,99609.17
2022-09-15T09:52:53.432Z,99622.89
2022-09-15T09:56:00.283Z,99611.16
2022-09-15T10:02:32.221Z,99618.54
2022-09-15T10:05:39.612Z,99612.62
2022-09-15T10:08:46.277Z,99611.87
2022-09-15T10:12:06.038Z,99617.45
2022-09-15T10:15:22.747Z,99616.08
2022-09-15T10:18:52.079Z,99610.10
2022-09-15T10:21:55.743Z,99608.26
2022-09-15T10:25:01.832Z,99599.23
2022-09-15T10:28:30.654Z,99595.74
2022-09-15T10:31:50.491Z,99600.86
2022-09-15T10:34:58.903Z,99592.04
2022-09-15T10:38:28.850Z,99585.45
2022-09-15T10:41:47.571Z,99584.61
2022-09-15T10:45:28.104Z,99583.40
2022-09-15T10:48:49.055Z,99580.16
2022-09-15T10:52:32.244Z,99569.63
2022-09-15T10:55:53.027Z,99564.66
2022-09-15T10:59:15.200Z,99556.58
2022-09-15T11:02:35.817Z,99553.59
2022-09-15T11:06:26.700Z,99558.13
2022-09-15T11:09:56.665Z,99560.72
2022-09-15T11:13:21.781Z,99563.78
2022-09-15T11:16:56.215Z,99565.38
2022-09-15T11:20:33.581Z,99551.42
2022-09-15T11:24:06.117Z,99543.78
2022-09-15T11:27:29.016Z,99544.79
2022-09-15T11:30:39.479Z,99536.63
2022-09-15T11:34:00.633Z,99532.58
2022-09-15T11:37:33.762Z,99535.28
2022-09-15T11:40:49.550Z,99529.70
2022-09-15T11:44:17.933Z,99535.75
2022-09-15T11:47:53.233Z,99543.18
2022-09-15T11:51:10.661Z,99537.81
2022-09-15T11:54:47.818Z,99537.71
2022-09-15T11:58:49.407Z,99535.16
2022-09-15T12:02:28.436Z,99533.09
2022-09-15T12:05:51.646Z,99529.19
2022-09-15T12:09:07.324Z,99529.72
2022-09-15T12:12:17.629Z,99523.33
2022-09-15T12:15:35.745Z,99521.37
2022-09-15T12:19:07.964Z,99519.13
2022-09-15T12:22:32.472Z,99512.95
2022-09-15T12:26:32.285Z,99514.87
2022-09-15T12:29:55.111Z,99507.94
2022-09-15T12:33:02.661Z,99499.70
2022-09-15T12:36:08.532Z,99503.04
2022-09-15T12:39:15.609Z,99507.77
2022-09-15T12:42:42.164Z,99501.91
2022-09-15T12:45:52.824Z,99512.09
2022-09-15T12:49:00.593Z,99505.13
2022-09-15T12:52:06.177Z,99496.47
2022-09-15T12:55:17.120Z,99497.56
2022-09-15T12:58:24.875Z,99489.25
2022-09-15T13:01:43.015Z,99482.41
2022-09-15T13:05:00.270Z,99477.56
2022-09-15T13:08:11.649Z,99473.58
2022-09-15T13:11:32.051Z,99474.53
2022-09-15T13:14:46.236Z,99472.11
2022-09-15T13:17:54.590Z,99475.45
2022-09-15T13:21:09.462Z,99459.95
2022-09-15T13:24:16.394Z,99455.02
2022-09-15T13:27:24.654Z,99459.95
2022-09-15T13:30:43.883Z,99456.02
2022-09-15T13:38:20.235Z,99456.42
2022-09-15T13:41:49.548Z,99450.20
2022-09-15T13:45:09.723Z,99462.05
2022-09-15T13:48:40.384Z,99457.22
2022-09-15T13:51:51.487Z,99456.58
2022-09-15T13:56:02.810Z,99457.64
2022-09-15T13:59:16.952Z,99453.13
2022-09-15T14:02:23.963Z,99455.27
2022-09-15T14:05:31.099Z,99446.28
2022-09-15T14:08:46.244Z,99451.25
2022-09-15T14:11:50.954Z,99453.42
2022-09-15T14:15:06.331Z,99453.06
2022-09-15T14:18:13.249Z,99456.08
2022-09-15T14:21:20.389Z,99458.25
2022-09-15T14:24:36.746Z,99445.74
2022-09-15T14:27:46.891Z,99446.77
2022-09-15T14:30:53.280Z,99449.14
2022-09-15T14:34:00.185Z,99448.50
2022-09-15T14:37:21.878Z,99444.28
2022-09-15T14:40:39.666Z,99432.91
2022-09-15T14:43:49.522Z,99442.32
2022-09-15T14:46:55.516Z,99446.16
2022-09-15T14:50:01.302Z,99443.63
2022-09-15T14:53:26.065Z,99443.88
2022-09-15T14:56:37.527Z,99434.97
2022-09-15T14:59:52.019Z,99435.22
2022-09-15T15:03:17.604Z,99428.01
2022-09-15T15:06:32.336Z,99428.25
2022-09-15T15:09:53.379Z,99424.06
2022-09-15T15:13:11.531Z,99429.84
2022-09-15T15:16:24.120Z,99419.80
2022-09-15T15:19:50.752Z,99415.89
2022-09-15T15:22:56.685Z,99415.89
2022-09-15T15:26:02.934Z,99413.30
2022-09-15T15:29:08.780Z,99411.80
2022-09-15T15:32:22.234Z,99412.36
2022-09-15T15:35:32.963Z,99402.89
2022-09-15T15:38:38.713Z,99399.80
2022-09-15T15:41:51.330Z,99398.91
2022-09-15T15:45:20.423Z,99395.54
2022-09-15T15:48:26.538Z,99392.48
2022-09-15T15:51:33.307Z,99396.88
2022-09-15T15:54:41.349Z,99386.30
2022-09-15T15:57:53.445Z,99393.47
2022-09-15T16:01:05.714Z,99392.33
2022-09-15T16:04:11.883Z,99388.71
2022-09-15T16:07:18.629Z,99381.19
2022-09-15T16:10:30.756Z,99390.30
2022-09-15T16:13:37.868Z,99394.13
2022-09-15T16:16:45.775Z,99392.16
2022-09-15T16:19:52.493Z,99395.17
2022-09-15T16:22:57.795Z,99385.70
2022-09-15T16:26:14.643Z,99394.00
2022-09-15T16:29:21.272Z,99395.63
2022-09-15T16:32:33.348Z,99398.64
2022-09-15T16:35:51.474Z,99401.66
2022-09-15T16:38:58.359Z,99398.06
2022-09-15T16:42:04.580Z,99389.45
2022-09-15T16:45:12.071Z,99390.83
2022-09-15T16:48:18.424Z,99395.55
2022-09-15T16:51:31.438Z,99395.78
2022-09-15T16:54:36.164Z,99399.37
2022-09-15T16:57:42.222Z,99400.75
2022-09-15T17:00:51.567Z,99396.85
2022-09-15T17:03:57.119Z,99400.18
2022-09-15T17:07:02.670Z,99400.95
2022-09-15T17:10:09.615Z,99405.34
2022-09-15T17:13:16.672Z,99405.02
2022-09-15T17:16:24.059Z,99409.17
2022-09-15T17:19:31.768Z,99404.45
2022-09-15T17:22:38.972Z,99400.30
2022-09-15T17:25:52.797Z,99408.84
2022-09-15T17:28:59.047Z,99402.17
2022-09-15T17:32:07.620Z,99399.08
2022-09-15T17:35:16.244Z,99389.11
2022-09-15T17:38:21.500Z,99386.03
2022-09-15T17:41:32.640Z,99396.84
2022-09-15T17:44:37.828Z,99390.50
2022-09-15T17:47:43.517Z,99389.11
2022-09-15T17:50:50.381Z,99384.11
2022-09-15T17:53:55.728Z,99390.18
2022-09-15T17:57:01.200Z,99388.80
2022-09-15T18:00:07.032Z,99378.83
2022-09-15T18:03:23.065Z,99376.84
2022-09-15T18:06:28.975Z,99376.30
2022-09-15T18:09:34.851Z,99374.64
2022-09-15T18:12:41.797Z,99363.82
2022-09-15T18:15:51.109Z,99364.88
2022-09-15T18:18:58.411Z,99361.52
2022-09-15T18:22:06.548Z,99361.52
2022-09-15T18:25:12.825Z,99364.84
2022-09-15T18:28:21.528Z,99358.45
2022-09-15T18:31:29.506Z,99358.45
2022-09-15T18:34:37.306Z,99367.04
2022-09-15T18:37:43.183Z,99365.12
2022-09-15T18:40:50.068Z,99365.66
2022-09-15T18:43:58.059Z,99367.04
2022-09-15T18:47:02.952Z,99368.50
2022-09-15T18:50:10.250Z,99365.49
2022-09-15T18:53:15.775Z,99354.14
2022-09-15T18:56:29.783Z,99353.58
2022-09-15T18:59:35.453Z,99352.52
2022-09-15T19:02:41.574Z,99347.28
2022-09-15T19:05:47.300Z,99350.05
2022-09-15T19:08:53.225Z,99345.13
2022-09-15T19:11:58.432Z,99335.98
2022-09-15T19:15:04.293Z,99330.20
2022-09-15T19:18:10.455Z,99339.88
2022-09-15T19:21:27.199Z,99333.81
2022-09-15T19:24:32.928Z,99338.25
2022-09-15T19:27:39.504Z,99325.28
2022-09-15T19:30:46.621Z,99331.34
2022-09-15T19:33:54.126Z,99323.89
2022-09-15T19:37:01.941Z,99326.12
2022-09-15T19:40:09.971Z,99318.13
2022-09-15T19:43:17.966Z,99326.17
2022-09-15T19:46:34.174Z,99323.94
2022-09-15T19:49:40.465Z,99316.50
2022-09-15T19:52:46.314Z,99317.34
2022-09-15T19:55:52.334Z,99322.03
2022-09-15T19:58:58.981Z,99322.31
2022-09-15T20:02:05.273Z,99318.41
2022-09-15T20:05:11.857Z,99323.13
2022-09-15T20:08:19.959Z,99323.58
2022-09-15T20:11:26.529Z,99333.21
2022-09-15T20:14:33.002Z,99326.25
2022-09-15T20:17:39.487Z,99320.66
2022-09-15T20:20:46.199Z,99315.90
2022-09-15T20:23:55.289Z,99318.91
2022-09-15T20:27:02.879Z,99320.29
2022-09-15T20:30:09.793Z,99312.23
2022-09-15T20:33:16.235Z,99323.30
2022-09-15T20:36:24.452Z,99315.25
2022-09-15T20:39:31.436Z,99316.34
2022-09-15T20:42:38.154Z,99316.88
2022-09-15T20:45:45.247Z,99313.81
2022-09-15T20:48:51.087Z,99321.87
2022-09-15T20:51:58.432Z,99319.34
2022-09-15T20:55:03.724Z,99318.25
2022-09-15T20:58:09.654Z,99325.41
2022-09-15T21:01:27.211Z,99317.68
2022-09-15T21:04:33.220Z,99312.92
2022-09-15T21:07:39.428Z,99311.78
2022-09-15T21:10:47.380Z,99312.84
2022-09-15T21:13:55.479Z,99310.89
2022-09-15T21:17:02.863Z,99302.84
2022-09-15T21:20:08.133Z,99300.36
2022-09-15T21:23:14.027Z,99293.75
2022-09-15T21:26:22.977Z,99293.50
2022-09-15T21:29:30.385Z,99294.64
2022-09-15T21:32:37.805Z,99291.87
2022-09-15T21:35:44.042Z,99296.58
2022-09-15T21:38:52.261Z,99286.91
2022-09-15T21:42:01.696Z,99283.01
2022-09-15T21:45:08.415Z,99276.02
2022-09-15T21:48:14.509Z,99270.70
2022-09-15T21:51:24.656Z,99260.38
2022-09-15T21:54:29.347Z,99258.02
2022-09-15T21:57:35.829Z,99263.67
2022-09-15T22:00:41.590Z,99258.58
2022-09-15T22:03:49.652Z,99249.86
2022-09-15T22:06:56.655Z,99245.83
2022-09-15T22:10:04.209Z,99242.62
2022-09-15T22:13:10.822Z,99252.44
2022-09-15T22:16:20.439Z,99261.84
2022-09-15T22:19:26.687Z,99253.42
2022-09-15T22:22:32.423Z,99259.05
2022-09-15T22:25:40.511Z,99263.25
2022-09-15T22:28:46.087Z,99261.36
2022-09-15T22:31:52.025Z,99268.69
2022-09-15T22:34:57.832Z,99279.82
2022-09-15T22:38:03.767Z,99279.39
2022-09-15T22:41:09.962Z,99285.06
2022-09-15T22:44:15.882Z,99278.63
2022-09-15T22:47:24.225Z,99283.30
2022-09-15T22:50:30.486Z,99282.63
2022-09-15T22:53:36.859Z,99285.33
2022-09-15T22:56:43.048Z,99275.67
2022-09-15T22:59:49.363Z,99282.09
2022-09-15T23:02:55.873Z,99274.91
2022-09-15T23:06:03.664Z,99274.97
2022-09-15T23:09:12.081Z,99270.36
2022-09-15T23:12:18.104Z,99265.98
2022-09-15T23:15:26.309Z,99254.66
2022-09-15T23:18:33.253Z,99261.80
2022-09-15T23:21:39.238Z,99263.41
2022-09-15T23:24:45.009Z,99259.50
2022-09-15T23:27:49.949Z,99263.32
2022-09-15T23:30:56.598Z,99266.02
2022-09-15T23:34:01.985Z,99275.91
2022-09-15T23:37:07.164Z,99276.97
2022-09-15T23:40:13.447Z,99277.81
2022-09-15T23:43:19.491Z,99284.66
2022-09-15T23:46:25.504Z,99279.52
2022-09-15T23:49:31.874Z,99271.92
2022-09-15T23:52:38.362Z,99278.67
2022-09-15T23:55:43.835Z,99279.66
2022-09-15T23:58:49.598Z,99277.70
